sensor_id;sensor_type;location;lat;lon;timestamp;P1;durP1;ratioP1;P2;durP2;ratioP2
22973;SDS011;11653;50.848;4.584;2023-06-26T00:01:50;6.77;;;4.90;;
22973;SDS011;11653;50.848;4.584;2023-06-26T00:04:16;6.67;;;4.33;;
22973;SDS011;11653;50.848;4.584;2023-06-26T00:06:41;8.00;;;4.50;;
22973;SDS011;11653;50.848;4.584;2023-06-26T00:09:07;8.47;;;4.90;;
22973;SDS011;11653;50.848;4.584;2023-06-26T00:11:33;6.97;;;4.60;;
22973;SDS011;11653;50.848;4.584;2023-06-26T00:13:59;7.27;;;5.23;;
22973;SDS011;11653;50.848;4.584;2023-06-26T00:16:25;8.20;;;4.83;;
22973;SDS011;11653;50.848;4.584;2023-06-26T00:18:52;5.73;;;4.83;;
22973;SDS011;11653;50.848;4.584;2023-06-26T00:21:18;7.00;;;4.67;;
22973;SDS011;11653;50.848;4.584;2023-06-26T00:23:44;8.47;;;4.87;;
22973;SDS011;11653;50.848;4.584;2023-06-26T00:26:10;8.30;;;5.97;;
22973;SDS011;11653;50.848;4.584;2023-06-26T00:28:36;8.33;;;5.13;;
22973;SDS011;11653;50.848;4.584;2023-06-26T00:31:02;8.50;;;5.23;;
22973;SDS011;11653;50.848;4.584;2023-06-26T00:33:28;9.77;;;5.13;;
22973;SDS011;11653;50.848;4.584;2023-06-26T00:35:53;7.73;;;4.93;;
22973;SDS011;11653;50.848;4.584;2023-06-26T00:38:19;6.27;;;4.77;;
22973;SDS011;11653;50.848;4.584;2023-06-26T00:40:45;5.70;;;4.20;;
22973;SDS011;11653;50.848;4.584;2023-06-26T00:43:10;5.87;;;4.13;;
22973;SDS011;11653;50.848;4.584;2023-06-26T00:45:36;5.87;;;4.40;;
22973;SDS011;11653;50.848;4.584;2023-06-26T00:48:02;7.50;;;4.77;;
22973;SDS011;11653;50.848;4.584;2023-06-26T00:50:28;5.60;;;3.90;;
22973;SDS011;11653;50.848;4.584;2023-06-26T00:52:54;9.83;;;4.43;;
22973;SDS011;11653;50.848;4.584;2023-06-26T00:55:25;7.00;;;4.70;;
22973;SDS011;11653;50.848;4.584;2023-06-26T00:57:54;7.10;;;3.83;;
22973;SDS011;11653;50.848;4.584;2023-06-26T01:00:20;6.40;;;4.23;;
22973;SDS011;11653;50.848;4.584;2023-06-26T01:02:46;10.00;;;4.53;;
22973;SDS011;11653;50.848;4.584;2023-06-26T01:05:12;7.93;;;4.50;;
22973;SDS011;11653;50.848;4.584;2023-06-26T01:07:45;7.40;;;4.07;;
22973;SDS011;11653;50.848;4.584;2023-06-26T01:10:12;8.93;;;4.33;;
22973;SDS011;11653;50.848;4.584;2023-06-26T01:12:38;7.00;;;4.17;;
22973;SDS011;11653;50.848;4.584;2023-06-26T01:15:04;9.23;;;4.10;;
22973;SDS011;11653;50.848;4.584;2023-06-26T01:17:30;8.20;;;4.10;;
22973;SDS011;11653;50.848;4.584;2023-06-26T01:20:00;10.80;;;4.13;;
22973;SDS011;11653;50.848;4.584;2023-06-26T01:28:17;7.63;;;3.80;;
22973;SDS011;11653;50.848;4.584;2023-06-26T01:30:44;6.50;;;3.90;;
22973;SDS011;11653;50.848;4.584;2023-06-26T01:33:12;8.50;;;3.97;;
22973;SDS011;11653;50.848;4.584;2023-06-26T01:35:38;7.27;;;3.90;;
22973;SDS011;11653;50.848;4.584;2023-06-26T01:38:38;5.93;;;3.90;;
22973;SDS011;11653;50.848;4.584;2023-06-26T01:40:57;8.60;;;4.30;;
22973;SDS011;11653;50.848;4.584;2023-06-26T01:46:16;7.77;;;3.33;;
22973;SDS011;11653;50.848;4.584;2023-06-26T01:51:35;6.43;;;3.50;;
22973;SDS011;11653;50.848;4.584;2023-06-26T01:54:08;5.53;;;3.80;;
22973;SDS011;11653;50.848;4.584;2023-06-26T01:56:38;6.60;;;3.60;;
22973;SDS011;11653;50.848;4.584;2023-06-26T01:59:05;5.73;;;3.40;;
22973;SDS011;11653;50.848;4.584;2023-06-26T02:01:32;6.70;;;4.40;;
22973;SDS011;11653;50.848;4.584;2023-06-26T02:03:59;7.30;;;3.53;;
22973;SDS011;11653;50.848;4.584;2023-06-26T02:06:25;10.27;;;3.60;;
22973;SDS011;11653;50.848;4.584;2023-06-26T02:08:50;8.07;;;3.90;;
22973;SDS011;11653;50.848;4.584;2023-06-26T02:11:16;9.10;;;4.07;;
22973;SDS011;11653;50.848;4.584;2023-06-26T02:13:42;8.03;;;3.60;;
22973;SDS011;11653;50.848;4.584;2023-06-26T02:16:07;10.07;;;3.50;;
22973;SDS011;11653;50.848;4.584;2023-06-26T02:18:33;9.90;;;3.93;;
22973;SDS011;11653;50.848;4.584;2023-06-26T02:20:58;6.43;;;3.60;;
22973;SDS011;11653;50.848;4.584;2023-06-26T02:23:25;9.50;;;4.27;;
22973;SDS011;11653;50.848;4.584;2023-06-26T02:25:50;7.63;;;3.63;;
22973;SDS011;11653;50.848;4.584;2023-06-26T02:28:16;7.07;;;3.70;;
22973;SDS011;11653;50.848;4.584;2023-06-26T02:30:41;6.10;;;3.50;;
22973;SDS011;11653;50.848;4.584;2023-06-26T02:33:07;6.47;;;4.03;;
22973;SDS011;11653;50.848;4.584;2023-06-26T02:35:33;9.80;;;4.20;;
22973;SDS011;11653;50.848;4.584;2023-06-26T02:37:59;10.67;;;4.23;;
22973;SDS011;11653;50.848;4.584;2023-06-26T02:40:24;9.10;;;4.10;;
22973;SDS011;11653;50.848;4.584;2023-06-26T02:42:50;9.57;;;4.13;;
22973;SDS011;11653;50.848;4.584;2023-06-26T02:45:15;9.17;;;4.20;;
22973;SDS011;11653;50.848;4.584;2023-06-26T02:47:41;8.00;;;4.37;;
22973;SDS011;11653;50.848;4.584;2023-06-26T02:50:07;10.47;;;4.40;;
22973;SDS011;11653;50.848;4.584;2023-06-26T02:52:33;11.27;;;4.30;;
22973;SDS011;11653;50.848;4.584;2023-06-26T02:54:58;12.17;;;4.60;;
22973;SDS011;11653;50.848;4.584;2023-06-26T02:57:24;9.03;;;4.00;;
22973;SDS011;11653;50.848;4.584;2023-06-26T02:59:50;8.37;;;3.80;;
22973;SDS011;11653;50.848;4.584;2023-06-26T03:02:16;7.87;;;4.43;;
22973;SDS011;11653;50.848;4.584;2023-06-26T03:04:42;11.17;;;5.00;;
22973;SDS011;11653;50.848;4.584;2023-06-26T03:07:08;10.67;;;4.37;;
22973;SDS011;11653;50.848;4.584;2023-06-26T03:09:34;9.47;;;4.10;;
22973;SDS011;11653;50.848;4.584;2023-06-26T03:11:59;11.70;;;4.30;;
22973;SDS011;11653;50.848;4.584;2023-06-26T03:14:25;13.47;;;4.80;;
22973;SDS011;11653;50.848;4.584;2023-06-26T03:16:52;13.57;;;5.17;;
22973;SDS011;11653;50.848;4.584;2023-06-26T03:19:18;9.33;;;4.80;;
22973;SDS011;11653;50.848;4.584;2023-06-26T03:21:44;9.40;;;4.60;;
22973;SDS011;11653;50.848;4.584;2023-06-26T03:24:09;10.57;;;4.90;;
22973;SDS011;11653;50.848;4.584;2023-06-26T03:26:35;13.27;;;5.23;;
22973;SDS011;11653;50.848;4.584;2023-06-26T03:29:01;12.40;;;4.83;;
22973;SDS011;11653;50.848;4.584;2023-06-26T03:31:26;7.70;;;4.40;;
22973;SDS011;11653;50.848;4.584;2023-06-26T03:33:52;14.53;;;5.27;;
22973;SDS011;11653;50.848;4.584;2023-06-26T03:36:18;14.40;;;6.07;;
22973;SDS011;11653;50.848;4.584;2023-06-26T03:38:43;14.00;;;5.47;;
22973;SDS011;11653;50.848;4.584;2023-06-26T03:41:09;7.63;;;5.03;;
22973;SDS011;11653;50.848;4.584;2023-06-26T03:43:34;11.30;;;4.40;;
22973;SDS011;11653;50.848;4.584;2023-06-26T03:46:00;13.77;;;5.17;;
22973;SDS011;11653;50.848;4.584;2023-06-26T03:48:26;10.47;;;4.83;;
22973;SDS011;11653;50.848;4.584;2023-06-26T03:50:52;14.47;;;5.40;;
22973;SDS011;11653;50.848;4.584;2023-06-26T03:53:18;13.70;;;5.07;;
22973;SDS011;11653;50.848;4.584;2023-06-26T03:55:44;13.73;;;5.47;;
22973;SDS011;11653;50.848;4.584;2023-06-26T03:58:09;12.53;;;5.07;;
22973;SDS011;11653;50.848;4.584;2023-06-26T04:00:35;11.40;;;4.60;;
22973;SDS011;11653;50.848;4.584;2023-06-26T04:03:00;16.73;;;6.33;;
22973;SDS011;11653;50.848;4.584;2023-06-26T04:05:28;22.57;;;5.80;;
22973;SDS011;11653;50.848;4.584;2023-06-26T04:07:53;10.50;;;5.73;;
22973;SDS011;11653;50.848;4.584;2023-06-26T04:10:19;12.57;;;4.53;;
22973;SDS011;11653;50.848;4.584;2023-06-26T04:12:46;16.73;;;6.00;;
22973;SDS011;11653;50.848;4.584;2023-06-26T04:15:12;15.47;;;5.63;;
22973;SDS011;11653;50.848;4.584;2023-06-26T04:17:38;12.10;;;4.93;;
22973;SDS011;11653;50.848;4.584;2023-06-26T04:20:04;14.50;;;5.20;;
22973;SDS011;11653;50.848;4.584;2023-06-26T04:22:33;21.23;;;5.60;;
22973;SDS011;11653;50.848;4.584;2023-06-26T04:25:03;12.97;;;4.77;;
22973;SDS011;11653;50.848;4.584;2023-06-26T04:27:28;18.00;;;5.17;;
22973;SDS011;11653;50.848;4.584;2023-06-26T04:29:55;21.70;;;6.23;;
22973;SDS011;11653;50.848;4.584;2023-06-26T04:32:21;15.33;;;4.70;;
22973;SDS011;11653;50.848;4.584;2023-06-26T04:34:46;18.87;;;5.43;;
22973;SDS011;11653;50.848;4.584;2023-06-26T04:37:13;17.30;;;4.53;;
22973;SDS011;11653;50.848;4.584;2023-06-26T04:39:42;15.23;;;4.57;;
22973;SDS011;11653;50.848;4.584;2023-06-26T04:42:07;10.37;;;4.40;;
22973;SDS011;11653;50.848;4.584;2023-06-26T04:44:34;15.10;;;5.07;;
22973;SDS011;11653;50.848;4.584;2023-06-26T04:47:00;13.53;;;4.97;;
22973;SDS011;11653;50.848;4.584;2023-06-26T04:49:25;14.67;;;4.20;;
22973;SDS011;11653;50.848;4.584;2023-06-26T04:51:52;16.03;;;3.93;;
22973;SDS011;11653;50.848;4.584;2023-06-26T04:54:18;14.40;;;4.57;;
22973;SDS011;11653;50.848;4.584;2023-06-26T04:56:44;18.87;;;4.93;;
22973;SDS011;11653;50.848;4.584;2023-06-26T04:59:12;15.93;;;6.70;;
22973;SDS011;11653;50.848;4.584;2023-06-26T05:01:38;13.13;;;5.00;;
22973;SDS011;11653;50.848;4.584;2023-06-26T05:04:04;8.77;;;4.23;;
22973;SDS011;11653;50.848;4.584;2023-06-26T05:06:30;14.00;;;4.60;;
22973;SDS011;11653;50.848;4.584;2023-06-26T05:08:56;14.73;;;3.90;;
22973;SDS011;11653;50.848;4.584;2023-06-26T05:11:22;15.50;;;3.77;;
22973;SDS011;11653;50.848;4.584;2023-06-26T05:13:48;14.87;;;3.77;;
22973;SDS011;11653;50.848;4.584;2023-06-26T05:16:14;14.73;;;3.97;;
22973;SDS011;11653;50.848;4.584;2023-06-26T05:18:40;16.40;;;3.57;;
22973;SDS011;11653;50.848;4.584;2023-06-26T05:21:06;9.83;;;3.07;;
22973;SDS011;11653;50.848;4.584;2023-06-26T05:23:32;14.47;;;3.57;;
22973;SDS011;11653;50.848;4.584;2023-06-26T05:25:59;8.07;;;3.40;;
22973;SDS011;11653;50.848;4.584;2023-06-26T05:28:25;14.90;;;4.00;;
22973;SDS011;11653;50.848;4.584;2023-06-26T05:30:52;12.07;;;3.43;;
22973;SDS011;11653;50.848;4.584;2023-06-26T05:33:20;12.40;;;4.10;;
22973;SDS011;11653;50.848;4.584;2023-06-26T05:35:48;14.20;;;3.53;;
22973;SDS011;11653;50.848;4.584;2023-06-26T05:38:16;11.70;;;3.67;;
22973;SDS011;11653;50.848;4.584;2023-06-26T05:40:42;12.13;;;4.07;;
22973;SDS011;11653;50.848;4.584;2023-06-26T05:43:08;10.47;;;3.43;;
22973;SDS011;11653;50.848;4.584;2023-06-26T05:45:34;16.27;;;3.70;;
22973;SDS011;11653;50.848;4.584;2023-06-26T05:48:00;10.37;;;2.80;;
22973;SDS011;11653;50.848;4.584;2023-06-26T05:50:26;11.47;;;3.83;;
22973;SDS011;11653;50.848;4.584;2023-06-26T05:52:53;10.80;;;3.00;;
22973;SDS011;11653;50.848;4.584;2023-06-26T05:55:19;14.53;;;3.63;;
22973;SDS011;11653;50.848;4.584;2023-06-26T05:57:45;10.63;;;2.93;;
22973;SDS011;11653;50.848;4.584;2023-06-26T06:00:12;12.67;;;3.00;;
22973;SDS011;11653;50.848;4.584;2023-06-26T06:02:38;9.60;;;2.93;;
22973;SDS011;11653;50.848;4.584;2023-06-26T06:05:04;12.00;;;2.97;;
22973;SDS011;11653;50.848;4.584;2023-06-26T06:07:31;10.90;;;2.80;;
22973;SDS011;11653;50.848;4.584;2023-06-26T06:09:58;12.00;;;3.10;;
22973;SDS011;11653;50.848;4.584;2023-06-26T06:12:24;9.93;;;2.50;;
22973;SDS011;11653;50.848;4.584;2023-06-26T06:14:50;7.33;;;2.43;;
22973;SDS011;11653;50.848;4.584;2023-06-26T06:17:16;11.63;;;2.83;;
22973;SDS011;11653;50.848;4.584;2023-06-26T06:19:41;8.17;;;2.97;;
22973;SDS011;11653;50.848;4.584;2023-06-26T06:22:07;12.50;;;3.60;;
22973;SDS011;11653;50.848;4.584;2023-06-26T06:24:33;11.43;;;2.83;;
22973;SDS011;11653;50.848;4.584;2023-06-26T06:26:58;9.87;;;2.70;;
22973;SDS011;11653;50.848;4.584;2023-06-26T06:29:24;10.13;;;2.50;;
22973;SDS011;11653;50.848;4.584;2023-06-26T06:31:49;8.57;;;2.70;;
22973;SDS011;11653;50.848;4.584;2023-06-26T06:34:16;11.37;;;2.37;;
22973;SDS011;11653;50.848;4.584;2023-06-26T06:36:42;6.97;;;2.53;;
22973;SDS011;11653;50.848;4.584;2023-06-26T06:39:07;9.37;;;2.70;;
22973;SDS011;11653;50.848;4.584;2023-06-26T06:41:33;9.47;;;2.50;;
22973;SDS011;11653;50.848;4.584;2023-06-26T06:43:59;12.73;;;2.50;;
22973;SDS011;11653;50.848;4.584;2023-06-26T06:46:24;10.27;;;2.40;;
22973;SDS011;11653;50.848;4.584;2023-06-26T06:48:52;11.20;;;2.87;;
22973;SDS011;11653;50.848;4.584;2023-06-26T06:51:18;6.93;;;2.17;;
22973;SDS011;11653;50.848;4.584;2023-06-26T06:53:43;8.53;;;2.20;;
22973;SDS011;11653;50.848;4.584;2023-06-26T06:56:09;9.27;;;2.57;;
22973;SDS011;11653;50.848;4.584;2023-06-26T06:58:34;6.83;;;2.17;;
22973;SDS011;11653;50.848;4.584;2023-06-26T07:01:00;8.50;;;2.00;;
22973;SDS011;11653;50.848;4.584;2023-06-26T07:03:27;5.50;;;2.43;;
22973;SDS011;11653;50.848;4.584;2023-06-26T07:05:53;11.20;;;3.27;;
22973;SDS011;11653;50.848;4.584;2023-06-26T07:08:20;9.87;;;2.20;;
22973;SDS011;11653;50.848;4.584;2023-06-26T07:10:46;11.33;;;2.10;;
22973;SDS011;11653;50.848;4.584;2023-06-26T07:13:11;7.47;;;2.27;;
22973;SDS011;11653;50.848;4.584;2023-06-26T07:15:37;6.63;;;1.97;;
22973;SDS011;11653;50.848;4.584;2023-06-26T07:18:02;10.03;;;2.40;;
22973;SDS011;11653;50.848;4.584;2023-06-26T07:20:28;4.43;;;1.83;;
22973;SDS011;11653;50.848;4.584;2023-06-26T07:22:54;9.40;;;2.10;;
22973;SDS011;11653;50.848;4.584;2023-06-26T07:25:19;8.13;;;2.03;;
22973;SDS011;11653;50.848;4.584;2023-06-26T07:27:45;8.63;;;2.17;;
22973;SDS011;11653;50.848;4.584;2023-06-26T07:30:11;8.05;;;1.75;;
22973;SDS011;11653;50.848;4.584;2023-06-26T07:32:37;7.40;;;1.80;;
22973;SDS011;11653;50.848;4.584;2023-06-26T07:35:03;5.17;;;1.60;;
22973;SDS011;11653;50.848;4.584;2023-06-26T07:37:29;8.47;;;2.23;;
22973;SDS011;11653;50.848;4.584;2023-06-26T07:39:55;6.20;;;1.43;;
22973;SDS011;11653;50.848;4.584;2023-06-26T07:42:20;7.03;;;1.83;;
22973;SDS011;11653;50.848;4.584;2023-06-26T07:44:46;6.68;;;1.65;;
22973;SDS011;11653;50.848;4.584;2023-06-26T07:47:12;6.78;;;1.60;;
22973;SDS011;11653;50.848;4.584;2023-06-26T07:49:37;5.28;;;1.58;;
22973;SDS011;11653;50.848;4.584;2023-06-26T07:52:04;6.95;;;1.90;;
22973;SDS011;11653;50.848;4.584;2023-06-26T07:54:30;5.72;;;1.60;;
22973;SDS011;11653;50.848;4.584;2023-06-26T07:57:00;3.25;;;1.27;;
22973;SDS011;11653;50.848;4.584;2023-06-26T07:59:27;11.32;;;1.92;;
22973;SDS011;11653;50.848;4.584;2023-06-26T08:01:54;6.30;;;1.83;;
22973;SDS011;11653;50.848;4.584;2023-06-26T08:04:21;13.50;;;1.80;;
22973;SDS011;11653;50.848;4.584;2023-06-26T08:06:48;10.48;;;2.00;;
22973;SDS011;11653;50.848;4.584;2023-06-26T08:09:19;5.13;;;1.70;;
22973;SDS011;11653;50.848;4.584;2023-06-26T08:11:46;6.18;;;1.67;;
22973;SDS011;11653;50.848;4.584;2023-06-26T08:14:12;8.40;;;1.70;;
22973;SDS011;11653;50.848;4.584;2023-06-26T08:16:38;4.22;;;1.33;;
22973;SDS011;11653;50.848;4.584;2023-06-26T08:19:04;13.38;;;1.58;;
22973;SDS011;11653;50.848;4.584;2023-06-26T08:21:30;5.47;;;1.50;;
22973;SDS011;11653;50.848;4.584;2023-06-26T08:23:55;5.97;;;1.83;;
22973;SDS011;11653;50.848;4.584;2023-06-26T08:26:21;8.38;;;1.83;;
22973;SDS011;11653;50.848;4.584;2023-06-26T08:28:47;8.65;;;1.52;;
22973;SDS011;11653;50.848;4.584;2023-06-26T08:31:13;8.85;;;1.67;;
22973;SDS011;11653;50.848;4.584;2023-06-26T08:33:38;3.80;;;1.50;;
22973;SDS011;11653;50.848;4.584;2023-06-26T08:36:04;7.85;;;1.70;;
22973;SDS011;11653;50.848;4.584;2023-06-26T08:38:30;6.30;;;1.40;;
22973;SDS011;11653;50.848;4.584;2023-06-26T08:40:55;8.32;;;1.52;;
22973;SDS011;11653;50.848;4.584;2023-06-26T08:43:21;5.93;;;1.40;;
22973;SDS011;11653;50.848;4.584;2023-06-26T08:45:47;6.13;;;2.35;;
22973;SDS011;11653;50.848;4.584;2023-06-26T08:48:16;5.75;;;1.65;;
22973;SDS011;11653;50.848;4.584;2023-06-26T08:50:43;14.77;;;1.52;;
22973;SDS011;11653;50.848;4.584;2023-06-26T08:55:48;5.03;;;1.17;;
22973;SDS011;11653;50.848;4.584;2023-06-26T08:58:18;4.93;;;1.15;;
22973;SDS011;11653;50.848;4.584;2023-06-26T09:00:43;5.72;;;1.10;;
22973;SDS011;11653;50.848;4.584;2023-06-26T09:03:09;4.75;;;1.50;;
22973;SDS011;11653;50.848;4.584;2023-06-26T09:05:35;5.53;;;1.50;;
22973;SDS011;11653;50.848;4.584;2023-06-26T09:08:01;5.38;;;1.40;;
22973;SDS011;11653;50.848;4.584;2023-06-26T09:10:27;7.13;;;1.70;;
22973;SDS011;11653;50.848;4.584;2023-06-26T09:12:56;3.88;;;1.30;;
22973;SDS011;11653;50.848;4.584;2023-06-26T09:15:23;5.93;;;1.50;;
22973;SDS011;11653;50.848;4.584;2023-06-26T09:17:49;4.68;;;1.45;;
22973;SDS011;11653;50.848;4.584;2023-06-26T09:20:15;6.93;;;1.20;;
22973;SDS011;11653;50.848;4.584;2023-06-26T09:22:42;4.93;;;1.20;;
22973;SDS011;11653;50.848;4.584;2023-06-26T09:25:12;2.08;;;0.93;;
22973;SDS011;11653;50.848;4.584;2023-06-26T09:27:37;4.75;;;1.48;;
22973;SDS011;11653;50.848;4.584;2023-06-26T09:30:06;4.97;;;1.23;;
22973;SDS011;11653;50.848;4.584;2023-06-26T09:32:35;4.15;;;1.00;;
22973;SDS011;11653;50.848;4.584;2023-06-26T09:35:02;4.80;;;1.30;;
22973;SDS011;11653;50.848;4.584;2023-06-26T09:37:28;4.28;;;1.30;;
22973;SDS011;11653;50.848;4.584;2023-06-26T09:39:54;3.30;;;1.00;;
22973;SDS011;11653;50.848;4.584;2023-06-26T09:42:20;4.00;;;1.40;;
22973;SDS011;11653;50.848;4.584;2023-06-26T09:44:46;3.10;;;1.15;;
22973;SDS011;11653;50.848;4.584;2023-06-26T09:47:16;6.03;;;1.65;;
22973;SDS011;11653;50.848;4.584;2023-06-26T09:49:43;3.20;;;1.10;;
22973;SDS011;11653;50.848;4.584;2023-06-26T09:52:09;5.57;;;1.58;;
22973;SDS011;11653;50.848;4.584;2023-06-26T09:54:38;6.40;;;1.20;;
22973;SDS011;11653;50.848;4.584;2023-06-26T09:57:07;3.65;;;1.33;;
22973;SDS011;11653;50.848;4.584;2023-06-26T09:59:34;3.58;;;1.10;;
22973;SDS011;11653;50.848;4.584;2023-06-26T10:02:00;2.90;;;1.50;;
22973;SDS011;11653;50.848;4.584;2023-06-26T10:04:26;4.72;;;1.40;;
22973;SDS011;11653;50.848;4.584;2023-06-26T10:06:51;6.22;;;1.58;;
22973;SDS011;11653;50.848;4.584;2023-06-26T10:09:21;3.85;;;1.15;;
22973;SDS011;11653;50.848;4.584;2023-06-26T10:12:06;5.00;;;1.38;;
22973;SDS011;11653;50.848;4.584;2023-06-26T10:14:39;7.60;;;2.38;;
22973;SDS011;11653;50.848;4.584;2023-06-26T10:17:10;6.13;;;1.50;;
22973;SDS011;11653;50.848;4.584;2023-06-26T10:19:39;3.92;;;1.30;;
22973;SDS011;11653;50.848;4.584;2023-06-26T10:22:06;5.68;;;1.55;;
22973;SDS011;11653;50.848;4.584;2023-06-26T10:24:35;8.25;;;1.70;;
22973;SDS011;11653;50.848;4.584;2023-06-26T10:27:23;3.83;;;1.47;;
22973;SDS011;11653;50.848;4.584;2023-06-26T10:29:50;6.95;;;1.77;;
22973;SDS011;11653;50.848;4.584;2023-06-26T10:32:19;5.47;;;1.40;;
22973;SDS011;11653;50.848;4.584;2023-06-26T10:34:48;3.00;;;1.42;;
22973;SDS011;11653;50.848;4.584;2023-06-26T10:37:14;6.82;;;1.45;;
22973;SDS011;11653;50.848;4.584;2023-06-26T10:39:47;6.40;;;1.45;;
22973;SDS011;11653;50.848;4.584;2023-06-26T10:42:16;6.40;;;1.23;;
22973;SDS011;11653;50.848;4.584;2023-06-26T10:44:44;4.07;;;1.45;;
22973;SDS011;11653;50.848;4.584;2023-06-26T10:47:11;2.28;;;1.05;;
22973;SDS011;11653;50.848;4.584;2023-06-26T10:49:56;6.40;;;1.35;;
22973;SDS011;11653;50.848;4.584;2023-06-26T10:52:41;4.25;;;1.48;;
22973;SDS011;11653;50.848;4.584;2023-06-26T10:55:08;6.40;;;1.50;;
22973;SDS011;11653;50.848;4.584;2023-06-26T10:57:35;9.20;;;1.57;;
22973;SDS011;11653;50.848;4.584;2023-06-26T11:00:10;7.47;;;1.40;;
22973;SDS011;11653;50.848;4.584;2023-06-26T11:02:51;7.60;;;1.38;;
22973;SDS011;11653;50.848;4.584;2023-06-26T11:05:27;4.18;;;1.70;;
22973;SDS011;11653;50.848;4.584;2023-06-26T11:08:03;6.13;;;1.70;;
22973;SDS011;11653;50.848;4.584;2023-06-26T11:10:29;4.13;;;1.38;;
22973;SDS011;11653;50.848;4.584;2023-06-26T11:13:12;4.88;;;1.30;;
22973;SDS011;11653;50.848;4.584;2023-06-26T11:15:38;5.18;;;1.38;;
22973;SDS011;11653;50.848;4.584;2023-06-26T11:18:05;4.28;;;1.67;;
22973;SDS011;11653;50.848;4.584;2023-06-26T11:20:31;3.35;;;1.35;;
22973;SDS011;11653;50.848;4.584;2023-06-26T11:22:57;6.15;;;1.48;;
22973;SDS011;11653;50.848;4.584;2023-06-26T11:25:23;3.67;;;1.63;;
22973;SDS011;11653;50.848;4.584;2023-06-26T11:27:49;6.43;;;1.52;;
22973;SDS011;11653;50.848;4.584;2023-06-26T11:30:24;4.82;;;1.60;;
22973;SDS011;11653;50.848;4.584;2023-06-26T11:32:51;4.93;;;1.42;;
22973;SDS011;11653;50.848;4.584;2023-06-26T11:35:23;4.55;;;1.80;;
22973;SDS011;11653;50.848;4.584;2023-06-26T11:38:02;6.90;;;1.48;;
22973;SDS011;11653;50.848;4.584;2023-06-26T11:40:34;4.47;;;1.80;;
22973;SDS011;11653;50.848;4.584;2023-06-26T11:43:01;5.28;;;2.10;;
22973;SDS011;11653;50.848;4.584;2023-06-26T11:45:28;6.20;;;2.13;;
22973;SDS011;11653;50.848;4.584;2023-06-26T11:47:55;6.72;;;2.30;;
22973;SDS011;11653;50.848;4.584;2023-06-26T11:50:22;5.28;;;1.90;;
22973;SDS011;11653;50.848;4.584;2023-06-26T11:52:55;4.82;;;1.70;;
22973;SDS011;11653;50.848;4.584;2023-06-26T11:55:24;5.18;;;1.90;;
22973;SDS011;11653;50.848;4.584;2023-06-26T11:57:54;6.57;;;1.92;;
22973;SDS011;11653;50.848;4.584;2023-06-26T12:00:22;4.50;;;1.90;;
22973;SDS011;11653;50.848;4.584;2023-06-26T12:02:48;4.57;;;2.22;;
22973;SDS011;11653;50.848;4.584;2023-06-26T12:05:15;5.72;;;2.08;;
22973;SDS011;11653;50.848;4.584;2023-06-26T12:07:50;3.63;;;1.85;;
22973;SDS011;11653;50.848;4.584;2023-06-26T12:10:16;4.18;;;1.80;;
22973;SDS011;11653;50.848;4.584;2023-06-26T12:12:43;6.13;;;1.75;;
22973;SDS011;11653;50.848;4.584;2023-06-26T12:15:13;4.43;;;1.63;;
22973;SDS011;11653;50.848;4.584;2023-06-26T12:17:40;7.22;;;1.80;;
22973;SDS011;11653;50.848;4.584;2023-06-26T12:20:17;3.53;;;1.50;;
22973;SDS011;11653;50.848;4.584;2023-06-26T12:22:45;7.57;;;1.90;;
22973;SDS011;11653;50.848;4.584;2023-06-26T12:25:12;2.42;;;1.45;;
22973;SDS011;11653;50.848;4.584;2023-06-26T12:27:38;4.60;;;1.80;;
22973;SDS011;11653;50.848;4.584;2023-06-26T12:30:04;4.18;;;1.70;;
22973;SDS011;11653;50.848;4.584;2023-06-26T12:32:30;5.30;;;2.15;;
22973;SDS011;11653;50.848;4.584;2023-06-26T12:34:56;6.07;;;1.55;;
22973;SDS011;11653;50.848;4.584;2023-06-26T12:37:23;8.38;;;2.33;;
22973;SDS011;11653;50.848;4.584;2023-06-26T12:39:50;5.03;;;1.30;;
22973;SDS011;11653;50.848;4.584;2023-06-26T12:42:17;5.40;;;1.70;;
22973;SDS011;11653;50.848;4.584;2023-06-26T12:44:48;3.95;;;1.63;;
22973;SDS011;11653;50.848;4.584;2023-06-26T12:47:14;4.97;;;1.48;;
22973;SDS011;11653;50.848;4.584;2023-06-26T12:49:42;4.47;;;1.60;;
22973;SDS011;11653;50.848;4.584;2023-06-26T12:52:13;4.65;;;2.05;;
22973;SDS011;11653;50.848;4.584;2023-06-26T12:54:40;8.15;;;1.92;;
22973;SDS011;11653;50.848;4.584;2023-06-26T12:57:07;4.82;;;2.22;;
22973;SDS011;11653;50.848;4.584;2023-06-26T12:59:33;5.00;;;1.75;;
22973;SDS011;11653;50.848;4.584;2023-06-26T13:02:01;5.13;;;1.50;;
22973;SDS011;11653;50.848;4.584;2023-06-26T13:04:27;6.45;;;1.50;;
22973;SDS011;11653;50.848;4.584;2023-06-26T13:06:53;5.38;;;1.65;;
22973;SDS011;11653;50.848;4.584;2023-06-26T13:09:21;4.88;;;1.50;;
22973;SDS011;11653;50.848;4.584;2023-06-26T13:11:49;4.53;;;1.83;;
22973;SDS011;11653;50.848;4.584;2023-06-26T13:14:14;6.33;;;1.57;;
22973;SDS011;11653;50.848;4.584;2023-06-26T13:16:40;5.65;;;1.80;;
22973;SDS011;11653;50.848;4.584;2023-06-26T13:19:06;5.93;;;1.50;;
22973;SDS011;11653;50.848;4.584;2023-06-26T13:21:32;5.00;;;1.80;;
22973;SDS011;11653;50.848;4.584;2023-06-26T13:23:58;6.17;;;1.50;;
22973;SDS011;11653;50.848;4.584;2023-06-26T13:26:25;6.60;;;1.50;;
22973;SDS011;11653;50.848;4.584;2023-06-26T13:28:51;4.90;;;1.58;;
22973;SDS011;11653;50.848;4.584;2023-06-26T13:31:17;5.67;;;1.70;;
22973;SDS011;11653;50.848;4.584;2023-06-26T13:33:44;5.57;;;1.60;;
22973;SDS011;11653;50.848;4.584;2023-06-26T13:36:11;4.93;;;1.70;;
22973;SDS011;11653;50.848;4.584;2023-06-26T13:38:36;10.43;;;2.10;;
22973;SDS011;11653;50.848;4.584;2023-06-26T13:41:02;5.82;;;1.58;;
22973;SDS011;11653;50.848;4.584;2023-06-26T13:43:28;5.53;;;1.60;;
22973;SDS011;11653;50.848;4.584;2023-06-26T13:45:54;5.10;;;1.38;;
22973;SDS011;11653;50.848;4.584;2023-06-26T13:48:20;6.13;;;1.50;;
22973;SDS011;11653;50.848;4.584;2023-06-26T13:50:47;4.10;;;1.47;;
22973;SDS011;11653;50.848;4.584;2023-06-26T13:53:13;4.87;;;1.70;;
22973;SDS011;11653;50.848;4.584;2023-06-26T13:55:39;5.23;;;1.67;;
22973;SDS011;11653;50.848;4.584;2023-06-26T13:58:05;5.53;;;1.57;;
22973;SDS011;11653;50.848;4.584;2023-06-26T14:00:32;4.43;;;1.43;;
22973;SDS011;11653;50.848;4.584;2023-06-26T14:03:04;5.90;;;1.50;;
22973;SDS011;11653;50.848;4.584;2023-06-26T14:05:35;7.93;;;1.77;;
22973;SDS011;11653;50.848;4.584;2023-06-26T14:08:05;4.60;;;1.53;;
22973;SDS011;11653;50.848;4.584;2023-06-26T14:10:32;6.83;;;2.00;;
22973;SDS011;11653;50.848;4.584;2023-06-26T14:12:58;6.07;;;1.70;;
22973;SDS011;11653;50.848;4.584;2023-06-26T14:15:28;4.77;;;1.70;;
22973;SDS011;11653;50.848;4.584;2023-06-26T14:17:54;9.03;;;2.40;;
22973;SDS011;11653;50.848;4.584;2023-06-26T14:20:21;5.40;;;2.07;;
22973;SDS011;11653;50.848;4.584;2023-06-26T14:22:47;7.03;;;1.63;;
22973;SDS011;11653;50.848;4.584;2023-06-26T14:25:14;6.53;;;1.30;;
22973;SDS011;11653;50.848;4.584;2023-06-26T14:27:40;2.87;;;1.10;;
22973;SDS011;11653;50.848;4.584;2023-06-26T14:30:06;5.00;;;1.43;;
22973;SDS011;11653;50.848;4.584;2023-06-26T14:32:32;3.33;;;1.40;;
22973;SDS011;11653;50.848;4.584;2023-06-26T14:34:58;4.57;;;1.20;;
22973;SDS011;11653;50.848;4.584;2023-06-26T14:37:24;5.40;;;1.30;;
22973;SDS011;11653;50.848;4.584;2023-06-26T14:39:51;7.47;;;1.40;;
22973;SDS011;11653;50.848;4.584;2023-06-26T14:42:16;6.00;;;1.60;;
22973;SDS011;11653;50.848;4.584;2023-06-26T14:44:42;4.80;;;1.40;;
22973;SDS011;11653;50.848;4.584;2023-06-26T14:47:11;8.10;;;1.50;;
22973;SDS011;11653;50.848;4.584;2023-06-26T14:49:37;6.90;;;1.20;;
22973;SDS011;11653;50.848;4.584;2023-06-26T14:52:03;3.47;;;1.57;;
22973;SDS011;11653;50.848;4.584;2023-06-26T14:54:29;5.72;;;1.48;;
22973;SDS011;11653;50.848;4.584;2023-06-26T14:56:54;4.53;;;1.13;;